Tiempo atmosférico en la estación meteorológica de Najera, La Rioja (500 m.)



Fecha
DESCASC
Temp. máxima en grados centígrados (hora)
DESCASC
Temp. mínima en grados centígrados (hora)
DESCASC
Temp. media en grados centígrados
DESCASC
Racha de viento máxima en m/sg (hora)
DESCASC
Velocidad máxima media en intervalos de 10 minutos(hora)
DESCASC
Precipitaciones diarias en mm
DESCASC
Precipitaciones de 00:00 a 06:00 en mm
DESCASC
Precipitaciones de 06:00 a 12:00 en mm
DESCASC
Precipitaciones de 12:00 a 18:00 en mm
DESCASC
Precipitaciones de 18:00 a 24:00 en mm
DESCASC
31-03-2020 5 (18:00) 1.1 (07:40) 3.1 11.39 (19:10) 6.94 (18:40) 0.8 0 0 0.8 0
30-03-2020 7.3 (15:50) 2 (09:20) 4.7 7.5 (00:20) 3.61 (14:10) 0 0 0 0 0
29-03-2020 15.6 (16:40) 2.6 (00:00) 9.1 8.61 (18:20) 4.17 (18:20) 0 0 0 0 0
28-03-2020 18.6 (17:40) 0.1 (00:00) 9.4 5.56 (15:00) 2.22 (13:40) 0 0 0 0 0
27-03-2020 15 (16:30) 1.2 (00:00) 8.1 6.67 (15:30) 3.61 (16:50) 0 0 0 0 0
26-03-2020 11.5 (14:40) 2.7 (00:00) 7.1 10.28 (15:30) 4.72 (13:20) 0 0 0 0 0
25-03-2020 17.8 (16:20) 5.2 (00:00) 11.5 6.94 (16:20) 4.17 (18:20) 0 0 0 0 0
24-03-2020 17.6 (17:20) 6.9 (00:00) 12.3 9.17 (11:20) 5.83 (11:20) 0 0 0 0 0
23-03-2020 16.7 (16:40) 6.9 (00:00) 11.8 11.94 (20:20) 6.67 (20:20) 0 0 0 0 0
22-03-2020 18.1 (16:10) 5.6 (07:50) 11.9 7.22 (15:20) 3.89 (15:30) 0 0 0 0 0
21-03-2020 16 (16:10) 5.3 (00:00) 10.7 11.11 (14:00) 6.67 (13:40) 0 0 0 0 0
20-03-2020 14.6 (16:20) 5.7 (00:00) 10.2 11.94 (04:10) 7.22 (04:10) 0 0 0 0 0
19-03-2020 17 (15:10) 8.4 (00:00) 12.7 11.39 (15:10) 6.67 (17:10) 0 0 0 0 0
18-03-2020 15 (14:50) 4.7 (00:00) 9.8 7.78 (15:50) 4.44 (15:40) 0 0 0 0 0
17-03-2020 11.5 (16:10) 5.1 (00:00) 8.3 6.39 (15:30) 3.89 (15:50) 6.4 4.8 1.4 0.2 0
16-03-2020 7.1 (00:00) 1.4 (00:00) 4.2 6.11 (15:00) 3.06 (15:00) 48.8 15.6 11.6 10.4 11.2
15-03-2020 17.8 (15:00) -0.2 (00:00) 8.8 9.44 (14:00) 6.11 (14:00) 6.6 0 0 0 6.6
14-03-2020 17.5 (16:50) 1.7 (00:00) 9.6 6.11 (01:00) 2.5 (01:00) 0 0 0 0 0
13-03-2020 12.1 (14:10) 5.6 (23:59) 8.9 5.83 (22:50) 3.06 (15:50) 0 0 0 0 0
12-03-2020 15.8 (14:10) 9.4 (00:00) 12.6 7.22 (13:30) 3.89 (18:00) 0 0 0 0 0
11-03-2020 24.2 (17:20) 3.9 (00:00) 14.1 3.33 (21:40) 1.94 (03:20) 0 0 0 0 0
10-03-2020 21.7 (17:10) 3.9 (00:00) 12.8 7.22 (15:40) 3.61 (15:30) 0 0 0 0 0
09-03-2020 12.6 (15:00) 5.2 (00:00) 8.9 10 (10:20) 5 (14:00) 0 0 0 0 0
08-03-2020 16.2 (16:00) 0.1 (00:00) 8.2 7.78 (16:10) 3.89 (17:50) 0 0 0 0 0
07-03-2020 11.4 (18:10) 3 (00:00) 7.2 10.83 (00:50) 4.72 (13:20) 0.6 0.4 0.2 0 0
06-03-2020 8.1 (03:50) 4.1 (00:00) 6.1 16.94 (10:20) 7.22 (13:30) 4.4 0 3 0.8 0.6
05-03-2020 16.3 (15:00) 6.5 (00:00) 11.4 19.44 (14:40) 10 (11:00) 1.6 0 0.2 1.4 0
04-03-2020 20.2 (15:50) 9 (00:00) 14.6 11.94 (10:50) 6.11 (13:30) 0.4 0.2 0.2 0 0

Gráficas

Temp. máximas Temp. mínimas Temp. medias Precipitaciones Rachas de viento máximas Velocidades máximas media en intervalos de 10 minutos

Datos horarios

Fecha y hora oficial Temperatura (ºC) Velocidad del viento (km/h) Dirección del viento Racha (km/h) Dirección de racha Precipitación (mm) Presión (hPa) Tendencia (hPa) Humedad (%)
2020-04-02 23:00:00 7.7 7 Noroeste 20 Noroeste 0 -- -- 73
2020-04-02 22:00:00 7.8 5 Oeste 25 Oeste 0 -- -- 72
2020-04-02 21:00:00 9.1 8 Noroeste 22 Noroeste 0 -- -- 62
2020-04-02 20:00:00 10.8 8 Norte 27 Norte 0 -- -- 62
2020-04-02 19:00:00 11.6 9 Norte 21 Norte 0 -- -- 66
2020-04-02 18:00:00 11.7 6 Noroeste 16 Noroeste 0 -- -- 72
2020-04-02 17:00:00 11.4 5 Oeste 19 Norte 0 -- -- 75
2020-04-02 16:00:00 11.7 8 Noroeste 19 Noroeste 0 -- -- 71
2020-04-02 15:00:00 11.3 3 Sur 11 Sur 0 -- -- 84
2020-04-02 14:00:00 11.1 5 Sur 12 Sur 0 -- -- 87
2020-04-02 13:00:00 9.7 5 Sur 10 Sudoeste 0 -- -- 91
2020-04-02 12:00:00 9 4 Sudoeste 9 Sudoeste 0 -- -- 91
2020-04-02 11:00:00 8.6 4 Sudoeste 10 Sur 0 -- -- 93
2020-04-02 10:00:00 8.1 5 Sur 9 Sudoeste 0 -- -- 96
2020-04-02 09:00:00 7.6 4 Sur 6 Sudoeste 0.2 -- -- 96
2020-04-02 08:00:00 7.5 2 Sudoeste 5 Oeste 0 -- -- 97
2020-04-02 07:00:00 7.7 0 Calma 4 Sudoeste 0.2 -- -- 97
2020-04-02 06:00:00 7.7 0 Calma 4 Norte 0.4 -- -- 97
2020-04-02 05:00:00 7.8 0 Calma 7 Norte 0.4 -- -- 97
2020-04-02 04:00:00 7.8 2 Norte 6 Norte 0.8 -- -- 96
2020-04-02 03:00:00 8 0 Calma 9 Nordeste 1.2 -- -- 96
2020-04-02 02:00:00 8.1 5 Norte 12 Nordeste 1.6 -- -- 96
2020-04-02 01:00:00 8.2 6 Nordeste 14 Este 1.2 -- -- 96
2020-04-02 00:00:00 8.4 7 Nordeste 14 Nordeste 2.2 -- -- 95
2020-04-01 23:00:00 8.6 6 Nordeste 14 Nordeste 0.8 -- -- 95
2020-04-01 22:00:00 8.8 6 Nordeste 17 Este 0 -- -- 93
2020-04-01 21:00:00 9.1 9 Nordeste 19 Este 0 -- -- 90
2020-04-01 20:00:00 9.6 10 Nordeste 22 Nordeste 0 -- -- 87
2020-04-01 19:00:00 10.4 11 Nordeste 27 Nordeste 0 -- -- 83
2020-04-01 18:00:00 10.9 16 Este 35 Este 0 -- -- 80
2020-04-01 17:00:00 11.6 18 Este 34 Este 0 -- -- 80
2020-04-01 16:00:00 11.5 16 Nordeste 36 Este 0 -- -- 81
2020-04-01 15:00:00 11.1 20 Este 33 Nordeste 0 -- -- 83
2020-04-01 14:00:00 10.2 17 Este 29 Este 0 -- -- 86
2020-04-01 13:00:00 8.7 16 Nordeste 30 Este 0 -- -- 90
2020-04-01 12:00:00 7.6 15 Este 27 Este 0.4 -- -- 93
2020-04-01 11:00:00 6.8 14 Este 27 Nordeste 0.2 -- -- 94
2020-04-01 10:00:00 6.5 13 Nordeste 24 Este 0.2 -- -- 95
2020-04-01 09:00:00 6.2 12 Nordeste 26 Este 2.4 -- -- 97
2020-04-01 08:00:00 6 14 Nordeste 32 Nordeste 0.8 -- -- 97
2020-04-01 07:00:00 6 21 Este 38 Nordeste 0 -- -- 96
2020-04-01 06:00:00 6 16 Este 30 Este 0 -- -- 95
2020-04-01 05:00:00 5.8 14 Nordeste 33 Este 0 -- -- 95
2020-04-01 04:00:00 5.6 20 Este 38 Este 0 -- -- 94
2020-04-01 03:00:00 5.4 21 Este 37 Este 0 -- -- 95
2020-04-01 02:00:00 5 19 Este 37 Este 0 -- -- 95
2020-04-01 01:00:00 5.3 25 Este 39 Nordeste 0 -- -- 94
2020-04-01 00:00:00 4.7 19 Este 35 Nordeste 0 -- -- 95
2020-03-31 23:00:00 4.6 18 Este 32 Este 0 -- -- 95
2020-03-31 22:00:00 4.5 19 Este 31 Este 0 -- -- 95
2020-03-31 21:00:00 4.7 15 Este 32 Nordeste 0 -- -- 94
2020-03-31 20:00:00 4.6 17 Este 41 Este 0 -- -- 93
2020-03-31 19:00:00 4.8 24 Este 36 Este 0 -- -- 92
2020-03-31 18:00:00 5 18 Nordeste 40 Este 0 -- -- 91
2020-03-31 17:00:00 4.6 21 Este 32 Este 0 -- -- 91
2020-03-31 16:00:00 3.8 22 Nordeste 37 Nordeste 0 -- -- 93
2020-03-31 15:00:00 4 20 Nordeste 39 Nordeste 0 -- -- 94
2020-03-31 14:00:00 3.1 22 Nordeste 36 Este 0.6 -- -- 92
2020-03-31 13:00:00 3.4 16 Nordeste 31 Este 0.2 -- -- 90
2020-03-31 12:00:00 3.6 21 Este 33 Este 0 -- -- 83
2020-03-31 11:00:00 2.7 14 Nordeste 26 Nordeste 0 -- -- 84
2020-03-31 10:00:00 2 14 Este 27 Este 0 -- -- 86
2020-03-31 09:00:00 1.4 13 Nordeste 25 Este 0 -- -- 88
2020-03-31 08:00:00 1.1 13 Nordeste 23 Nordeste 0 -- -- 89
2020-03-31 07:00:00 1.2 13 Este 23 Este 0 -- -- 87
2020-03-31 06:00:00 2 12 Nordeste 23 Este 0 -- -- 80
2020-03-31 05:00:00 1.9 0 Calma 4 Sudoeste 0 -- -- 82
2020-03-31 04:00:00 1.9 2 Sur 4 Sur 0 -- -- 81
2020-03-31 03:00:00 1.8 2 Sur 11 Noroeste 0 -- -- 81
2020-03-31 02:00:00 1.9 5 Oeste 10 Oeste 0 -- -- 80
2020-03-31 01:00:00 2 4 Sur 10 Oeste 0 -- -- 83
2020-03-31 00:00:00 2.3 4 Oeste 12 Oeste 0 -- -- 81
2020-03-30 23:00:00 2.6 6 Oeste 15 Noroeste 0 -- -- 79
2020-03-30 22:00:00 3.2 5 Norte 14 Noroeste 0 -- -- 72
2020-03-30 21:00:00 3.9 2 Noroeste 17 Norte 0 -- -- 67
2020-03-30 20:00:00 4.5 8 Norte 17 Norte 0 -- -- 66
2020-03-30 19:00:00 5 5 Norte 13 Oeste 0 -- -- 66
2020-03-30 18:00:00 5.2 9 Noroeste 24 Oeste 0 -- -- 68
2020-03-30 17:00:00 6.5 9 Noroeste 22 Noroeste 0 -- -- 49
2020-03-30 16:00:00 6.5 10 Norte 25 Noroeste 0 -- -- 56
2020-03-30 15:00:00 7 8 Norte 26 Nordeste 0 -- -- 52
2020-03-30 14:00:00 5.8 12 Norte 25 Nordeste 0 -- -- 53
2020-03-30 13:00:00 6 11 Norte 22 Nordeste 0 -- -- 56
2020-03-30 12:00:00 4.1 7 Norte 19 Norte 0 -- -- 62
2020-03-30 11:00:00 3.4 6 Noroeste 21 Oeste 0 -- -- 71
2020-03-30 10:00:00 3 9 Noroeste 19 Oeste 0 -- -- 72
2020-03-30 09:00:00 2.3 8 Noroeste 22 Noroeste 0 -- -- 80
2020-03-30 08:00:00 3 4 Noroeste 13 Oeste 0 -- -- 76
2020-03-30 07:00:00 3.1 6 Noroeste 16 Oeste 0 -- -- 74
2020-03-30 06:00:00 3.2 7 Noroeste 17 Norte 0 -- -- 74
2020-03-30 05:00:00 3.7 9 Norte 22 Norte 0 -- -- 71
2020-03-30 04:00:00 4 7 Noroeste 22 Norte 0 -- -- 81
2020-03-30 03:00:00 4.7 6 Norte 22 Noroeste 0 -- -- 80
2020-03-30 02:00:00 5 9 Noroeste 26 Noroeste 0 -- -- 81
2020-03-30 01:00:00 5.7 10 Noroeste 27 Noroeste 0 -- -- 81
2020-03-30 00:00:00 6.6 11 Noroeste 28 Noroeste 0 -- -- 79
2020-03-29 23:00:00 7.2 14 Noroeste 25 Noroeste 0 -- -- 82
2020-03-29 22:00:00 7.9 6 Noroeste 21 Noroeste 0 -- -- 78
2020-03-29 21:00:00 8.6 9 Noroeste 21 Oeste 0 -- -- 76
2020-03-29 20:00:00 9.5 6 Noroeste 19 Noroeste 0 -- -- 74
2020-03-29 19:00:00 10.9 9 Norte 31 Norte 0 -- -- 66
2020-03-29 18:00:00 12.4 13 Norte 26 Norte 0 -- -- 60
2020-03-29 17:00:00 14.2 12 Norte 27 Nordeste 0 -- -- 48
2020-03-29 16:00:00 15 11 Norte 27 Norte 0 -- -- 46
2020-03-29 15:00:00 14.4 10 Noroeste 24 Noroeste 0 -- -- 48
2020-03-29 14:00:00 13.7 7 Noroeste 24 Oeste 0 -- -- 41
2020-03-29 13:00:00 11.9 10 Noroeste 22 Oeste 0 -- -- 48
2020-03-29 12:00:00 10.6 9 Oeste 21 Oeste 0 -- -- 58
2020-03-29 11:00:00 9.5 6 Noroeste 20 Oeste 0 -- -- 59
2020-03-29 10:00:00 7.3 6 Sudoeste 13 Sudoeste 0 -- -- 68
2020-03-29 09:00:00 4.1 7 Sur 14 Sur 0 -- -- 81
2020-03-29 08:00:00 2.9 6 Sur 12 Sur 0 -- -- 85
2020-03-29 07:00:00 2.6 7 Sur 11 Sur 0 -- -- 86
2020-03-29 06:00:00 3.2 6 Sur 12 Sur 0 -- -- 84
2020-03-29 05:00:00 3.7 6 Sur 10 Sur 0 -- -- 84
2020-03-29 03:00:00 5.5 8 Sur 12 Sur 0 -- -- 78
2020-03-29 01:00:00 6.3 6 Sur 23 Sudoeste 0 -- -- 75
2020-03-29 00:00:00 8.4 7 Sudoeste 19 Oeste 0 -- -- 65
2020-03-28 23:00:00 9 7 Sudoeste 19 Sudoeste 0 -- -- 66
2020-03-28 22:00:00 9.5 6 Sur 15 Sur 0 -- -- 68
2020-03-28 21:00:00 11.1 4 Sur 12 Nordeste 0 -- -- 62
2020-03-28 20:00:00 13.6 6 Norte 12 Sudoeste 0 -- -- 51
2020-03-28 19:00:00 16.3 6 Oeste 14 Sudoeste 0 -- -- 39
2020-03-28 18:00:00 18.3 5 Oeste 12 Noroeste 0 -- -- 34
2020-03-28 17:00:00 18.4 3 Noroeste 9 Noroeste 0 -- -- 33
2020-03-28 16:00:00 17.8 5 Noroeste 14 Noroeste 0 -- -- 33
2020-03-28 15:00:00 16.7 8 Noroeste 20 Oeste 0 -- -- 36
2020-03-28 14:00:00 16.9 6 Nordeste 15 Nordeste 0 -- -- 38
2020-03-28 13:00:00 15.1 4 Noroeste 11 Norte 0 -- -- 41
2020-03-28 12:00:00 13.2 3 Este 9 Sudoeste 0 -- -- 46
2020-03-28 11:00:00 10.6 4 Noroeste 15 Oeste 0 -- -- 59
2020-03-28 10:00:00 8 4 Noroeste 12 Oeste 0 -- -- 62
2020-03-28 09:00:00 3.9 2 Oeste 6 Sur 0 -- -- 73
2020-03-28 08:00:00 0.8 2 Sur 6 Sur 0 -- -- 81
2020-03-28 07:00:00 0.1 2 Sur 8 Sur 0 -- -- 82
2020-03-28 06:00:00 0.3 3 Sur 10 Sur 0 -- -- 81
2020-03-28 05:00:00 0.6 6 Sur 9 Sur 0 -- -- 81
2020-03-28 04:00:00 0.9 5 Sudeste 9 Sudeste 0 -- -- 79
2020-03-28 03:00:00 1.5 6 Sur 9 Sur 0 -- -- 77
2020-03-28 02:00:00 1.9 8 Sur 10 Sur 0 -- -- 74
2020-03-28 01:00:00 2.2 6 Sur 10 Sur 0 -- -- 73
2020-03-28 00:00:00 3.2 7 Sur 12 Sur 0 -- -- 69
2020-03-27 23:00:00 4.2 7 Sur 12 Sudoeste 0 -- -- 65
2020-03-27 22:00:00 5.6 5 Sur 12 Sur 0 -- -- 61
2020-03-27 21:00:00 7.8 4 Sudeste 8 Sur 0 -- -- 56
2020-03-27 20:00:00 10.3 0 Calma 9 Este 0 -- -- 48
2020-03-27 19:00:00 12.7 5 Este 24 Este 0 -- -- 41
2020-03-27 18:00:00 14 12 Este 22 Este 0 -- -- 39
2020-03-27 17:00:00 14.6 10 Este 24 Nordeste 0 -- -- 36
2020-03-27 16:00:00 14.5 8 Nordeste 24 Este 0 -- -- 37
2020-03-27 15:00:00 13.8 9 Este 23 Nordeste 0 -- -- 36
2020-03-27 14:00:00 12.7 7 Nordeste 17 Nordeste 0 -- -- 43
2020-03-27 13:00:00 11.4 5 Nordeste 18 Norte 0 -- -- 50
2020-03-27 12:00:00 9.9 7 Nordeste 22 Norte 0 -- -- 53
2020-03-27 11:00:00 8.3 6 Nordeste 14 Nordeste 0 -- -- 58
2020-03-27 10:00:00 6.5 6 Noroeste 10 Oeste 0 -- -- 62
2020-03-27 09:00:00 4.2 5 Sudoeste 10 Sudoeste 0 -- -- 71
2020-03-27 08:00:00 2 4 Sur 8 Sur 0 -- -- 86
2020-03-27 07:00:00 1.5 3 Sur 7 Sudoeste 0 -- -- 85
2020-03-27 06:00:00 1.4 3 Sudeste 6 Sur 0 -- -- 86
2020-03-27 05:00:00 1.6 4 Sur 8 Sudeste 0 -- -- 83
2020-03-27 04:00:00 1.6 4 Sur 7 Sur 0 -- -- 84
2020-03-27 03:00:00 1.5 4 Sur 6 Sur 0 -- -- 84
2020-03-27 02:00:00 1.3 3 Sur 7 Sur 0 -- -- 81
2020-03-27 01:00:00 2.3 0 Calma 9 Noroeste 0 -- -- 75
2020-03-27 00:00:00 2.7 5 Sur 14 Oeste 0 -- -- 76
2020-03-26 23:00:00 3.9 6 Oeste 13 Oeste 0 -- -- 67
2020-03-26 22:00:00 5 3 Oeste 13 Oeste 0 -- -- 65
2020-03-26 21:00:00 6.1 5 Norte 16 Norte 0 -- -- 59
2020-03-26 20:00:00 7 4 Norte 17 Norte 0 -- -- 56
2020-03-26 19:00:00 8.1 10 Norte 29 Norte 0 -- -- 50
2020-03-26 18:00:00 9.3 11 Norte 29 Noroeste 0 -- -- 47
2020-03-26 17:00:00 10.5 12 Norte 31 Noroeste 0 -- -- 41
2020-03-26 16:00:00 11.1 15 Noroeste 37 Oeste 0 -- -- 44
2020-03-26 15:00:00 11.2 14 Noroeste 35 Oeste 0 -- -- 44
2020-03-26 14:00:00 10.8 15 Noroeste 35 Oeste 0 -- -- 43
2020-03-26 13:00:00 9.5 13 Noroeste 29 Noroeste 0 -- -- 59
2020-03-26 12:00:00 8.2 14 Noroeste 35 Oeste 0 -- -- 60
2020-03-26 11:00:00 8.4 12 Noroeste 25 Oeste 0 -- -- 62
2020-03-26 10:00:00 7.2 11 Oeste 29 Noroeste 0 -- -- 67
2020-03-26 09:00:00 7.1 14 Oeste 26 Oeste 0 -- -- 66
2020-03-26 08:00:00 6.7 8 Oeste 29 Oeste 0 -- -- 68
2020-03-26 07:00:00 6.1 10 Oeste 24 Oeste 0 -- -- 68
2020-03-26 06:00:00 6.3 8 Oeste 17 Oeste 0 -- -- 67
2020-03-26 05:00:00 6 2 Sudoeste 10 Sudoeste 0 -- -- 73
2020-03-26 04:00:00 5.7 5 Sur 14 Sur 0 -- -- 72
2020-03-26 03:00:00 5.3 6 Sur 14 Sudoeste 0 -- -- 74
2020-03-26 02:00:00 5 6 Sudoeste 13 Sur 0 -- -- 75
2020-03-26 01:00:00 5 5 Sudoeste 18 Oeste 0 -- -- 74
2020-03-26 00:00:00 5.6 2 Sur 23 Noroeste 0 -- -- 70
2020-03-25 23:00:00 6.7 10 Sudoeste 22 Oeste 0 -- -- 68
2020-03-25 22:00:00 8.4 5 Oeste 15 Noroeste 0 -- -- 66
2020-03-25 21:00:00 9.9 6 Noroeste 19 Nordeste 0 -- -- 60
2020-03-25 20:00:00 11.7 6 Norte 14 Nordeste 0 -- -- 51
2020-03-25 19:00:00 14 8 Norte 24 Nordeste 0 -- -- 40
2020-03-25 18:00:00 16 13 Norte 24 Nordeste 0 -- -- 35
2020-03-25 17:00:00 16.5 9 Norte 25 Oeste 0 -- -- 42
2020-03-25 16:00:00 17.3 10 Noroeste 24 Noroeste 0 -- -- 40
2020-03-25 15:00:00 16.3 9 Norte 20 Oeste 0 -- -- 46
2020-03-25 14:00:00 15.7 8 Noroeste 20 Oeste 0 -- -- 48
2020-03-25 13:00:00 14.1 5 Noroeste 12 Norte 0 -- -- 63
2020-03-25 12:00:00 11.8 4 Norte 10 Este 0 -- -- 76
2020-03-25 11:00:00 9.2 5 Nordeste 9 Norte 0 -- -- 86
2020-03-25 10:00:00 7.8 3 Noroeste 10 Sudoeste 0 -- -- 91
2020-03-25 09:00:00 7.1 2 Sudeste 4 Sudeste 0 -- -- 95
2020-03-25 08:00:00 6.6 4 Oeste 6 Noroeste 0 -- -- 96
2020-03-25 07:00:00 5.8 3 Sudoeste 5 Sur 0 -- -- 95
2020-03-25 06:00:00 5.2 3 Sur 6 Sudeste 0 -- -- 91
2020-03-25 05:00:00 6.5 4 Nordeste 10 Norte 0 -- -- 92
2020-03-25 04:00:00 6.8 4 Norte 8 Este 0 -- -- 89
2020-03-25 03:00:00 7.1 3 Este 6 Este 0 -- -- 86
2020-03-25 02:00:00 8 4 Sur 9 Sur 0 -- -- 82
2020-03-25 01:00:00 8.4 4 Sudeste 7 Sudeste 0 -- -- 82
2020-03-25 00:00:00 9.1 4 Sur 8 Sur 0 -- -- 79
2020-03-24 23:00:00 10 5 Sur 9 Sur 0 -- -- 76
2020-03-24 22:00:00 11 2 Sudoeste 8 Sur 0 -- -- 75
2020-03-24 21:00:00 12.2 3 Sur 6 Sudoeste 0 -- -- 69
2020-03-24 20:00:00 13.5 0 Calma 6 Este 0 -- -- 62
2020-03-24 19:00:00 15.8 3 Este 12 Este 0 -- -- 54
2020-03-24 18:00:00 17 5 Este 15 Nordeste 0 -- -- 47
2020-03-24 17:00:00 17.4 7 Este 22 Este 0 -- -- 47
2020-03-24 16:00:00 17 11 Este 24 Este 0 -- -- 50
2020-03-24 15:00:00 15.8 15 Este 27 Este 0 -- -- 55
2020-03-24 14:00:00 14.1 10 Este 24 Este 0 -- -- 66
2020-03-24 13:00:00 14 17 Nordeste 32 Este 0 -- -- 67
2020-03-24 12:00:00 14.2 18 Este 33 Este 0 -- -- 68
2020-03-24 11:00:00 12.7 18 Este 29 Este 0 -- -- 75
2020-03-24 10:00:00 10.6 14 Nordeste 26 Este 0 -- -- 84
2020-03-24 09:00:00 9.2 10 Este 16 Nordeste 0 -- -- 92
2020-03-24 08:00:00 7 3 Este 5 Este 0 -- -- 95
2020-03-24 07:00:00 7.4 2 Sudeste 6 Noroeste 0 -- -- 92
2020-03-24 06:00:00 8.6 3 Norte 30 Este 0 -- -- 92
2020-03-24 05:00:00 9.3 14 Este 26 Este 0 -- -- 93
2020-03-24 04:00:00 9.7 2 Sur 15 Nordeste 0 -- -- 94
2020-03-24 03:00:00 9.6 10 Este 29 Este 0 -- -- 94
2020-03-24 02:00:00 9.6 15 Este 26 Este 0 -- -- 93
2020-03-24 01:00:00 9.8 15 Este 27 Este 0 -- -- 91
2020-03-24 00:00:00 9.8 14 Nordeste 24 Este 0 -- -- 91
2020-03-23 23:00:00 9.8 11 Nordeste 27 Nordeste 0 -- -- 90
2020-03-23 22:00:00 10 15 Este 26 Este 0 -- -- 87
2020-03-23 21:00:00 10.8 16 Este 43 Este 0 -- -- 83
2020-03-23 20:00:00 13 13 Este 26 Este 0 -- -- 67
2020-03-23 19:00:00 13.8 6 Este 27 Este 0 -- -- 60
2020-03-23 18:00:00 14.4 15 Este 29 Nordeste 0 -- -- 63
2020-03-23 17:00:00 16 13 Nordeste 29 Este 0 -- -- 57
2020-03-23 16:00:00 15.7 14 Nordeste 31 Este 0 -- -- 59
2020-03-23 15:00:00 15.1 15 Este 27 Nordeste 0 -- -- 62
2020-03-23 14:00:00 13.9 11 Este 29 Nordeste 0 -- -- 67
2020-03-23 13:00:00 13.3 15 Este 26 Este 0 -- -- 68
2020-03-23 12:00:00 13.3 14 Nordeste 24 Nordeste 0 -- -- 70
2020-03-23 11:00:00 13.1 13 Este 23 Este 0 -- -- 74
2020-03-23 10:00:00 10.7 4 Nordeste 8 Nordeste 0 -- -- 85
2020-03-23 09:00:00 9.1 0 Calma 4 Sudeste 0 -- -- 90
2020-03-23 08:00:00 8.4 3 Sur 6 Nordeste 0 -- -- 91
2020-03-23 07:00:00 8.5 2 Norte 5 Norte 0 -- -- 92
2020-03-23 06:00:00 8.3 0 Calma 9 Norte 0 -- -- 93
2020-03-23 05:00:00 8.3 3 Norte 8 Norte 0 -- -- 90
2020-03-23 04:00:00 8 0 Calma 8 Sudoeste 0 -- -- 90
2020-03-23 03:00:00 7.5 4 Sur 10 Sudeste 0 -- -- 89
2020-03-23 02:00:00 7 2 Sudoeste 12 Sudeste 0 -- -- 89
2020-03-23 01:00:00 7 6 Sur 10 Sur 0 -- -- 88
2020-03-23 00:00:00 7.5 6 Sur 10 Sur 0 -- -- 87
2020-03-22 23:00:00 8.1 6 Sur 10 Sur 0 -- -- 85
2020-03-22 22:00:00 9.2 5 Sur 9 Sur 0 -- -- 81
2020-03-22 21:00:00 11.3 3 Sudoeste 10 Norte 0 -- -- 72
2020-03-22 20:00:00 12.9 4 Norte 18 Nordeste 0 -- -- 64
2020-03-22 19:00:00 15.4 8 Nordeste 17 Nordeste 0 -- -- 52
2020-03-22 18:00:00 16.9 10 Nordeste 26 Este 0 -- -- 47
2020-03-22 17:00:00 17.8 11 Nordeste 25 Este 0 -- -- 46
2020-03-22 16:00:00 18 14 Este 26 Nordeste 0 -- -- 46
2020-03-22 15:00:00 17.6 10 Este 22 Nordeste 0 -- -- 49
2020-03-22 14:00:00 16.9 9 Nordeste 16 Este 0 -- -- 54
2020-03-22 13:00:00 14.9 4 Nordeste 13 Nordeste 0 -- -- 61
2020-03-22 12:00:00 13.6 4 Este 10 Este 0 -- -- 65
2020-03-22 11:00:00 12 5 Nordeste 9 Nordeste 0 -- -- 69
2020-03-22 10:00:00 9.8 2 Noroeste 7 Sur 0 -- -- 78
2020-03-22 09:00:00 6.9 3 Sur 6 Sur 0 -- -- 92
2020-03-22 08:00:00 5.6 0 Calma 4 Norte 0 -- -- 93
2020-03-22 07:00:00 6.1 3 Norte 6 Norte 0 -- -- 91
2020-03-22 06:00:00 6.7 0 Calma 6 Sudoeste 0 -- -- 94
2020-03-22 05:00:00 6.7 0 Calma 4 Este 0 -- -- 94
2020-03-22 04:00:00 6.3 0 Calma 5 Sudeste 0 -- -- 92
2020-03-22 03:00:00 6.9 0 Calma 4 Sudeste 0 -- -- 91
2020-03-22 02:00:00 7.5 2 Sudoeste 4 Nordeste 0 -- -- 90
2020-03-22 01:00:00 7.7 0 Calma 7 Sur 0 -- -- 89
2020-03-22 00:00:00 7.9 3 Sur 6 Sudeste 0 -- -- 89
2020-03-21 23:00:00 8.3 2 Sur 7 Sudoeste 0 -- -- 84
2020-03-21 22:00:00 9.7 0 Calma 11 Este 0 -- -- 80
2020-03-21 21:00:00 11 6 Nordeste 19 Nordeste 0 -- -- 74
2020-03-21 20:00:00 12.2 11 Nordeste 19 Nordeste 0 -- -- 68
2020-03-21 19:00:00 13.5 7 Norte 31 Nordeste 0 -- -- 65
2020-03-21 18:00:00 14.9 18 Nordeste 30 Nordeste 0 -- -- 63
2020-03-21 17:00:00 15.6 15 Nordeste 33 Este 0 -- -- 63
2020-03-21 16:00:00 15.9 20 Este 37 Nordeste 0 -- -- 64
2020-03-21 15:00:00 15.2 24 Nordeste 38 Este 0 -- -- 63
2020-03-21 14:00:00 14 24 Este 40 Este 0 -- -- 65
2020-03-21 13:00:00 13.6 23 Nordeste 39 Nordeste 0 -- -- 68
2020-03-21 12:00:00 12.2 20 Este 33 Este 0 -- -- 74
2020-03-21 11:00:00 9.9 14 Nordeste 32 Este 0 -- -- 84
2020-03-21 10:00:00 8.6 15 Este 29 Este 0 -- -- 85
2020-03-21 09:00:00 6.9 5 Sur 23 Este 0 -- -- 92
2020-03-21 08:00:00 6.5 9 Este 29 Este 0 -- -- 94
2020-03-21 07:00:00 6.4 7 Este 26 Nordeste 0 -- -- 94
2020-03-21 06:00:00 6.5 10 Este 27 Este 0 -- -- 94
2020-03-21 05:00:00 6.6 5 Este 28 Este 0 -- -- 94
2020-03-21 04:00:00 6.5 11 Nordeste 21 Este 0 -- -- 96
2020-03-21 03:00:00 5.7 2 Sur 8 Sur 0 -- -- 93
2020-03-21 02:00:00 6.8 3 Sudeste 17 Nordeste 0 -- -- 91
2020-03-21 01:00:00 7.7 0 Calma 17 Este 0 -- -- 89
2020-03-21 00:00:00 9.1 5 Este 15 Nordeste 0 -- -- 85
2020-03-20 23:00:00 10 5 Norte 26 Este 0 -- -- 82
2020-03-20 22:00:00 10.9 13 Este 29 Este 0 -- -- 77
2020-03-20 21:00:00 11.2 16 Este 33 Este 0 -- -- 77
2020-03-20 20:00:00 11.6 3 Este 33 Este 0 -- -- 77
2020-03-20 19:00:00 12.5 11 Este 38 Este 0 -- -- 73
2020-03-20 18:00:00 13.6 21 Este 37 Nordeste 0 -- -- 70
2020-03-20 17:00:00 14 19 Este 40 Este 0 -- -- 69
2020-03-20 16:00:00 14.4 18 Nordeste 32 Este 0 -- -- 68
2020-03-20 15:00:00 13.9 14 Este 39 Nordeste 0 -- -- 69
2020-03-20 14:00:00 12.3 21 Nordeste 36 Este 0 -- -- 73
2020-03-20 13:00:00 12 21 Nordeste 37 Nordeste 0 -- -- 74
2020-03-20 12:00:00 11.2 17 Este 36 Este 0 -- -- 74
2020-03-20 11:00:00 8.5 19 Este 37 Este 0 -- -- 85
2020-03-20 10:00:00 7 18 Este 34 Este 0 -- -- 90
2020-03-20 09:00:00 6.3 13 Este 33 Este 0 -- -- 92
2020-03-20 08:00:00 5.9 13 Este 35 Este 0 -- -- 93
2020-03-20 07:00:00 5.7 11 Este 31 Este 0 -- -- 92
2020-03-20 06:00:00 6 4 Este 26 Este 0 -- -- 89
2020-03-20 05:00:00 6.6 11 Este 43 Este 0 -- -- 86
2020-03-20 04:00:00 7.4 23 Este 38 Este 0 -- -- 84
2020-03-20 03:00:00 8.2 4 Norte 29 Este 0 -- -- 85
2020-03-20 02:00:00 8.6 15 Este 26 Este 0 -- -- 84
2020-03-20 01:00:00 8.8 3 Norte 12 Este 0 -- -- 85
2020-03-20 00:00:00 8.7 5 Nordeste 16 Este 0 -- -- 86
2020-03-19 23:00:00 9 0 Calma 5 Sur 0 -- -- 86
2020-03-19 22:00:00 10.6 0 Calma 17 Este 0 -- -- 83
2020-03-19 21:00:00 11.5 6 Nordeste 24 Este 0 -- -- 77
2020-03-19 20:00:00 12.5 14 Este 29 Este 0 -- -- 70
2020-03-19 19:00:00 13.7 17 Nordeste 31 Este 0 -- -- 71
2020-03-19 18:00:00 14.9 19 Este 40 Este 0 -- -- 70
2020-03-19 17:00:00 15.9 23 Este 40 Este 0 -- -- 66
2020-03-19 16:00:00 16.7 21 Este 41 Este 0 -- -- 66
2020-03-19 15:00:00 16.8 21 Este 40 Este 0 -- -- 66
2020-03-19 14:00:00 15.5 10 Este 35 Este 0 -- -- 75
2020-03-19 13:00:00 13 22 Este 37 Este 0 -- -- 82
2020-03-19 12:00:00 12.2 14 Nordeste 22 Nordeste 0 -- -- 81
2020-03-19 11:00:00 10.4 9 Nordeste 17 Este 0 -- -- 84
2020-03-19 10:00:00 10.1 9 Este 14 Este 0 -- -- 88
2020-03-19 09:00:00 9.2 7 Nordeste 10 Nordeste 0 -- -- 92
2020-03-19 08:00:00 8.8 5 Este 13 Nordeste 0 -- -- 94
2020-03-19 07:00:00 9.1 2 Sudeste 15 Este 0 -- -- 93
2020-03-19 06:00:00 9.4 9 Nordeste 16 Nordeste 0 -- -- 93
2020-03-19 05:00:00 9.7 6 Este 11 Este 0 -- -- 93
2020-03-19 04:00:00 9.9 5 Nordeste 17 Este 0 -- -- 94
2020-03-19 03:00:00 10.2 10 Nordeste 17 Nordeste 0 -- -- 93
2020-03-19 02:00:00 10.8 2 Este 14 Nordeste 0 -- -- 91
2020-03-19 01:00:00 11 8 Nordeste 12 Nordeste 0 -- -- 90
2020-03-19 00:00:00 11.2 4 Nordeste 7 Este 0 -- -- 93
2020-03-18 23:00:00 11.3 0 Calma 4 Sur 0 -- -- 93
2020-03-18 22:00:00 11.8 0 Calma 13 Este 0 -- -- 91
2020-03-18 21:00:00 11.7 5 Este 17 Este 0 -- -- 92
2020-03-18 20:00:00 11.8 8 Este 18 Este 0 -- -- 91
2020-03-18 19:00:00 12.6 9 Nordeste 25 Nordeste 0 -- -- 87
2020-03-18 18:00:00 13.6 13 Nordeste 24 Este 0 -- -- 84
2020-03-18 17:00:00 14 12 Nordeste 27 Nordeste 0 -- -- 81
2020-03-18 16:00:00 14.1 15 Nordeste 28 Este 0 -- -- 79
2020-03-18 15:00:00 15 14 Nordeste 21 Nordeste 0 -- -- 78
2020-03-18 14:00:00 14 13 Nordeste 18 Este 0 -- -- 79
2020-03-18 13:00:00 14 8 Nordeste 13 Nordeste 0 -- -- 77
2020-03-18 12:00:00 13.1 5 Nordeste 10 Nordeste 0 -- -- 78
2020-03-18 11:00:00 11.1 5 Nordeste 9 Nordeste 0 -- -- 82
2020-03-18 10:00:00 8 0 Calma 5 Sudeste 0 -- -- 94
2020-03-18 09:00:00 5.9 2 Sur 8 Sudoeste 0 -- -- 97
2020-03-18 08:00:00 4.7 4 Sur 6 Sur 0 -- -- 96
2020-03-18 07:00:00 4.8 3 Sur 11 Sur 0 -- -- 95
2020-03-18 06:00:00 5.5 6 Sur 13 Sudeste 0 -- -- 93
2020-03-18 05:00:00 6.2 6 Sur 15 Sur 0 -- -- 93
2020-03-18 04:00:00 6.8 5 Sur 14 Sur 0 -- -- 95
2020-03-18 03:00:00 6.8 5 Sur 10 Sudoeste 0 -- -- 97
2020-03-18 02:00:00 6.5 3 Sur 8 Sur 0 -- -- 97
2020-03-18 01:00:00 6.1 7 Sur 10 Sur 0 -- -- 96
2020-03-18 00:00:00 6.8 4 Sur 7 Sur 0 -- -- 95
2020-03-17 23:00:00 7.3 3 Sur 6 Sudeste 0 -- -- 95
2020-03-17 22:00:00 8.5 0 Calma 8 Este 0 -- -- 94
2020-03-17 21:00:00 9.5 5 Este 15 Nordeste 0 -- -- 94
2020-03-17 20:00:00 9.9 5 Este 12 Sudeste 0 -- -- 94
2020-03-17 19:00:00 10.2 6 Este 19 Este 0 -- -- 92
2020-03-17 18:00:00 10.6 9 Nordeste 21 Este 0 -- -- 90
2020-03-17 17:00:00 11.3 12 Nordeste 21 Nordeste 0 -- -- 87
2020-03-17 16:00:00 11.4 11 Nordeste 23 Nordeste 0 -- -- 89
2020-03-17 15:00:00 10.1 8 Nordeste 18 Nordeste 0 -- -- 93
2020-03-17 14:00:00 9.5 2 Este 9 Este 0 -- -- 96
2020-03-17 13:00:00 8 3 Sur 6 Sur 0.2 -- -- 97
2020-03-17 12:00:00 7.7 3 Sur 8 Sur 0 -- -- 97
2020-03-17 11:00:00 7.4 3 Sur 12 Sudoeste 0 -- -- 98
2020-03-17 10:00:00 6.4 6 Sudoeste 17 Sudoeste 0 -- -- 98
2020-03-17 09:00:00 5.9 5 Sur 14 Sur 0.4 -- -- 98
2020-03-17 08:00:00 5.8 4 Sur 14 Sur 0.4 -- -- 98
2020-03-17 07:00:00 5.6 7 Sur 15 Sur 0.6 -- -- 97
2020-03-17 06:00:00 5.5 6 Sur 14 Sur 0.4 -- -- 97
2020-03-17 05:00:00 5.4 6 Sur 15 Sur 0.6 -- -- 97
2020-03-17 04:00:00 5.4 6 Sur 14 Sur 0.2 -- -- 96
2020-03-17 03:00:00 5.3 6 Sur 16 Sur 0.2 -- -- 96
2020-03-17 02:00:00 5.2 7 Sur 15 Sur 0.4 -- -- 96
2020-03-17 01:00:00 5.1 7 Sur 18 Sudoeste 3 -- -- 97
2020-03-17 00:00:00 5.2 5 Sur 15 Sur 0.6 -- -- 97
2020-03-16 23:00:00 5.2 6 Sur 14 Sur 4 -- -- 97
2020-03-16 22:00:00 5.1 5 Sur 14 Sudeste 2.8 -- -- 97
2020-03-16 21:00:00 4.7 9 Sur 16 Sur 2 -- -- 96
2020-03-16 20:00:00 4.5 8 Sur 17 Sudoeste 0.8 -- -- 96
2020-03-16 19:00:00 4.4 5 Sur 17 Sur 1 -- -- 95
2020-03-16 18:00:00 4.2 8 Sudoeste 19 Sudoeste 0.4 -- -- 94
2020-03-16 17:00:00 4.5 6 Sur 15 Sudoeste 0.2 -- -- 94
2020-03-16 16:00:00 3.4 10 Sudoeste 21 Sudoeste 1.2 -- -- 95
2020-03-16 15:00:00 3 11 Sudoeste 22 Sudoeste 2 -- -- 95
2020-03-16 14:00:00 2.7 9 Sur 20 Sur 2.8 -- -- 95
2020-03-16 13:00:00 2.5 8 Sur 18 Sur 3.8 -- -- 95
2020-03-16 12:00:00 2.1 8 Sur 19 Sur 2.6 -- -- 96
2020-03-16 11:00:00 1.9 7 Sur 14 Sur 1.6 -- -- 96
2020-03-16 10:00:00 2.1 5 Sur 15 Sudoeste 2.6 -- -- 95
2020-03-16 09:00:00 1.9 10 Sudoeste 19 Sur 1.8 -- -- 95
2020-03-16 08:00:00 1.7 6 Sur 15 Sudoeste 1.4 -- -- 96
2020-03-16 07:00:00 1.4 9 Sudoeste 18 Sudoeste 1.6 -- -- 95
2020-03-16 06:00:00 1.8 8 Sur 18 Sudoeste 2 -- -- 93
2020-03-16 05:00:00 3.7 4 Oeste 16 Noroeste 2.6 -- -- 91
2020-03-16 04:00:00 4.6 8 Oeste 22 Noroeste 3.8 -- -- 90
2020-03-16 03:00:00 5.4 8 Oeste 19 Oeste 2 -- -- 92
2020-03-16 02:00:00 6 5 Oeste 13 Oeste 3.4 -- -- 91
2020-03-16 01:00:00 6.5 4 Sudoeste 17 Noroeste 1.8 -- -- 88
2020-03-16 00:00:00 7.1 10 Noroeste 23 Noroeste 1.2 -- -- 86
2020-03-15 23:00:00 8.4 8 Norte 23 Noroeste 0.8 -- -- 88
2020-03-15 22:00:00 8.8 9 Sudoeste 22 Sudoeste 0 -- -- 86
2020-03-15 21:00:00 9.3 7 Sur 28 Noroeste 0.4 -- -- 90
2020-03-15 20:00:00 10.8 12 Noroeste 29 Oeste 2 -- -- 89
2020-03-15 19:00:00 12.8 8 Este 17 Norte 2.2 -- -- 87
2020-03-15 18:00:00 14.6 9 Nordeste 27 Este 0 -- -- 69
2020-03-15 17:00:00 16.3 11 Nordeste 34 Este 0 -- -- 57
2020-03-15 16:00:00 17.6 17 Nordeste 31 Este 0 -- -- 52
2020-03-15 15:00:00 17.8 18 Nordeste 31 Este 0 -- -- 49
2020-03-15 14:00:00 15.7 22 Este 34 Este 0 -- -- 54
2020-03-15 13:00:00 13.4 17 Este 29 Nordeste 0 -- -- 62
2020-03-15 12:00:00 12.1 13 Este 22 Este 0 -- -- 61
2020-03-15 11:00:00 10.4 10 Nordeste 20 Nordeste 0 -- -- 65
2020-03-15 10:00:00 7.9 8 Este 16 Este 0 -- -- 74
2020-03-15 09:00:00 2.1 3 Sur 8 Sur 0 -- -- 91
2020-03-15 08:00:00 0.1 4 Sur 8 Sudeste 0 -- -- 91
2020-03-15 07:00:00 0 2 Sur 7 Sur 0 -- -- 90
2020-03-15 06:00:00 0.5 0 Calma 6 Sur 0 -- -- 88
2020-03-15 05:00:00 0.9 3 Sur 6 Sur 0 -- -- 87
2020-03-15 04:00:00 1.4 3 Sur 5 Sur 0 -- -- 87
2020-03-15 03:00:00 2.2 2 Sur 6 Sudeste 0 -- -- 84
2020-03-15 02:00:00 3.1 2 Sur 5 Sudeste 0 -- -- 81
2020-03-15 01:00:00 4.1 2 Sur 10 Sudeste 0 -- -- 78
2020-03-15 00:00:00 5.1 5 Sur 8 Sur 0 -- -- 74
2020-03-14 23:00:00 6.1 2 Sudeste 9 Sudoeste 0 -- -- 71
2020-03-14 22:00:00 7.1 7 Sur 14 Sur 0 -- -- 71
2020-03-14 21:00:00 9 7 Sur 11 Sur 0 -- -- 65
2020-03-14 20:00:00 11.9 5 Sudeste 8 Sudeste 0 -- -- 55
2020-03-14 19:00:00 14.9 3 Oeste 10 Oeste 0 -- -- 42
2020-03-14 18:00:00 17.4 5 Oeste 14 Oeste 0 -- -- 35
2020-03-14 17:00:00 17.5 6 Noroeste 14 Oeste 0 -- -- 33
2020-03-14 16:00:00 17.1 5 Oeste 16 Oeste 0 -- -- 33
2020-03-14 15:00:00 16 7 Oeste 13 Oeste 0 -- -- 36
2020-03-14 14:00:00 14.8 7 Sudoeste 16 Oeste 0 -- -- 40
2020-03-14 13:00:00 13 8 Oeste 17 Sudoeste 0 -- -- 45
2020-03-14 12:00:00 11.3 8 Oeste 22 Noroeste 0 -- -- 58
2020-03-14 11:00:00 10 7 Oeste 15 Noroeste 0 -- -- 65
2020-03-14 10:00:00 8.3 8 Oeste 18 Oeste 0 -- -- 70
2020-03-14 09:00:00 4.6 7 Sudoeste 15 Sudoeste 0 -- -- 83
2020-03-14 08:00:00 1.9 6 Sur 10 Sur 0 -- -- 89
2020-03-14 07:00:00 2.4 6 Sur 14 Sur 0 -- -- 88
2020-03-14 06:00:00 2.8 6 Sur 13 Sur 0 -- -- 92
2020-03-14 05:00:00 2.3 6 Sur 11 Sur 0 -- -- 92
2020-03-14 04:00:00 2.7 5 Sur 12 Sur 0 -- -- 91
2020-03-14 03:00:00 2.6 6 Sur 12 Sur 0 -- -- 90
2020-03-14 02:00:00 3.5 3 Sudeste 18 Sudoeste 0 -- -- 86
2020-03-14 01:00:00 5.3 9 Sudoeste 22 Sudoeste 0 -- -- 83
2020-03-14 00:00:00 5.6 5 Sudoeste 17 Sur 0 -- -- 82
2020-03-13 23:00:00 6.6 8 Sudoeste 21 Sudoeste 0 -- -- 77
2020-03-13 22:00:00 6.7 6 Oeste 17 Noroeste 0 -- -- 80
2020-03-13 21:00:00 7.4 0 Calma 7 Sudoeste 0 -- -- 80
2020-03-13 20:00:00 9 5 Sudoeste 15 Sudoeste 0 -- -- 74
2020-03-13 19:00:00 10.3 6 Oeste 17 Oeste 0 -- -- 66
2020-03-13 18:00:00 10.7 8 Noroeste 21 Oeste 0 -- -- 67
2020-03-13 17:00:00 11.1 10 Noroeste 20 Noroeste 0 -- -- 67
2020-03-13 16:00:00 11.2 8 Noroeste 19 Noroeste 0 -- -- 67
2020-03-13 15:00:00 11.8 7 Norte 17 Oeste 0 -- -- 66
2020-03-13 14:00:00 12 8 Noroeste 18 Oeste 0 -- -- 67
2020-03-13 13:00:00 11.4 7 Noroeste 17 Oeste 0 -- -- 69
2020-03-13 12:00:00 11.4 5 Noroeste 12 Noroeste 0 -- -- 69
2020-03-13 11:00:00 10.8 4 Oeste 10 Sudoeste 0 -- -- 72
2020-03-13 10:00:00 9.6 3 Sudoeste 10 Sudoeste 0 -- -- 80
2020-03-13 09:00:00 8.9 4 Sudoeste 18 Oeste 0 -- -- 83
2020-03-13 08:00:00 8.8 7 Oeste 16 Oeste 0 -- -- 83
2020-03-13 07:00:00 9.1 3 Sudoeste 6 Oeste 0 -- -- 82
2020-03-13 06:00:00 9.2 0 Calma 9 Norte 0 -- -- 81
2020-03-13 05:00:00 9.5 4 Norte 10 Noroeste 0 -- -- 81
2020-03-13 04:00:00 9.5 0 Calma 11 Oeste 0 -- -- 84
2020-03-13 03:00:00 9.6 5 Oeste 14 Oeste 0 -- -- 83
2020-03-13 02:00:00 9.8 5 Oeste 17 Oeste 0 -- -- 83
2020-03-13 01:00:00 9.9 7 Oeste 20 Oeste 0 -- -- 83
2020-03-13 00:00:00 10.4 8 Noroeste 21 Noroeste 0 -- -- 82
2020-03-12 23:00:00 10.9 6 Noroeste 13 Noroeste 0 -- -- 83
2020-03-12 22:00:00 11.1 5 Noroeste 15 Noroeste 0 -- -- 82
2020-03-12 21:00:00 11.4 8 Noroeste 19 Noroeste 0 -- -- 80
2020-03-12 20:00:00 11.8 8 Oeste 21 Noroeste 0 -- -- 80
2020-03-12 19:00:00 12.3 11 Noroeste 23 Oeste 0 -- -- 78
2020-03-12 18:00:00 13.1 14 Noroeste 23 Oeste 0 -- -- 74
2020-03-12 17:00:00 14.1 13 Noroeste 25 Noroeste 0 -- -- 72
2020-03-12 16:00:00 15.2 9 Noroeste 21 Oeste 0 -- -- 67
2020-03-12 15:00:00 15.3 12 Oeste 25 Oeste 0 -- -- 68
2020-03-12 14:00:00 15.6 10 Oeste 26 Oeste 0 -- -- 68
2020-03-12 13:00:00 15.1 10 Oeste 24 Sudoeste 0 -- -- 70
2020-03-12 12:00:00 14.6 6 Noroeste 23 Oeste 0 -- -- 72
2020-03-12 11:00:00 12.7 8 Oeste 22 Oeste 0 -- -- 80
2020-03-12 10:00:00 11.6 9 Oeste 24 Sudoeste 0 -- -- 83
2020-03-12 09:00:00 10.7 6 Sudoeste 22 Sudoeste 0 -- -- 86
2020-03-12 08:00:00 10.3 4 Sudoeste 13 Oeste 0 -- -- 87
2020-03-12 07:00:00 9.5 5 Sur 11 Noroeste 0 -- -- 88
2020-03-12 06:00:00 9.8 0 Calma 7 Sur 0 -- -- 83
2020-03-12 05:00:00 9.8 4 Sur 8 Sudeste 0 -- -- 83
2020-03-12 04:00:00 9.9 4 Sur 9 Sur 0 -- -- 83
2020-03-12 03:00:00 10.6 3 Sur 5 Sur 0 -- -- 80
2020-03-12 02:00:00 11.2 3 Sur 6 Sudeste 0 -- -- 80
2020-03-12 01:00:00 12 2 Sudeste 6 Sur 0 -- -- 77
2020-03-12 00:00:00 12.4 3 Sur 9 Sur 0 -- -- 74
2020-03-11 23:00:00 12.9 5 Sur 10 Sur 0 -- -- 73
2020-03-11 22:00:00 13.4 6 Sur 12 Sur 0 -- -- 73
2020-03-11 21:00:00 14.5 4 Sur 8 Sudeste 0 -- -- 68
2020-03-11 20:00:00 16.9 2 Sur 8 Sudoeste 0 -- -- 61
2020-03-11 19:00:00 20.9 0 Calma 4 Oeste 0 -- -- 45
2020-03-11 18:00:00 23.5 2 Este 7 Nordeste 0 -- -- 38
2020-03-11 17:00:00 23.6 0 Calma 6 Nordeste 0 -- -- 34
2020-03-11 16:00:00 23.1 3 Nordeste 9 Nordeste 0 -- -- 34
2020-03-11 15:00:00 21.5 3 Nordeste 10 Nordeste 0 -- -- 43
2020-03-11 14:00:00 19.7 4 Norte 11 Nordeste 0 -- -- 48
2020-03-11 13:00:00 17.9 4 Nordeste 9 Norte 0 -- -- 51
2020-03-11 12:00:00 16 3 Norte 9 Este 0 -- -- 60
2020-03-11 11:00:00 13.8 5 Nordeste 8 Nordeste 0 -- -- 67
2020-03-11 10:00:00 9.8 0 Calma 4 Sur 0 -- -- 86
2020-03-11 09:00:00 5.2 4 Sur 9 Sur 0 -- -- 95
2020-03-11 08:00:00 4.1 6 Sur 10 Sur 0 -- -- 94
2020-03-11 07:00:00 4 0 Calma 8 Sudeste 0 -- -- 92
2020-03-11 06:00:00 4.6 3 Sur 7 Sur 0 -- -- 92
2020-03-11 05:00:00 5.2 4 Sur 9 Sudeste 0 -- -- 92
2020-03-11 04:00:00 5.7 5 Sur 11 Sur 0 -- -- 91
2020-03-11 03:00:00 6.5 4 Sur 8 Sur 0 -- -- 90
2020-03-11 02:00:00 7.1 6 Sur 9 Sur 0 -- -- 89
2020-03-11 01:00:00 7.9 5 Sur 11 Sur 0 -- -- 88
2020-03-11 00:00:00 9 5 Sur 9 Sur 0 -- -- 85
2020-03-10 23:00:00 10.2 4 Sur 10 Sudoeste 0 -- -- 81
2020-03-10 22:00:00 11.7 5 Sur 11 Sudeste 0 -- -- 77
2020-03-10 21:00:00 13.3 6 Sur 10 Sudeste 0 -- -- 73
2020-03-10 20:00:00 15.9 3 Sur 6 Sudoeste 0 -- -- 63
2020-03-10 19:00:00 19.2 3 Sur 6 Oeste 0 -- -- 52
2020-03-10 18:00:00 21.2 3 Noroeste 18 Noroeste 0 -- -- 45
2020-03-10 17:00:00 21.5 7 Noroeste 19 Noroeste 0 -- -- 45
2020-03-10 16:00:00 20.6 12 Noroeste 26 Noroeste 0 -- -- 44
2020-03-10 15:00:00 20.6 10 Noroeste 23 Noroeste 0 -- -- 44
2020-03-10 14:00:00 18.7 7 Oeste 17 Oeste 0 -- -- 50
2020-03-10 13:00:00 17.5 5 Oeste 11 Oeste 0 -- -- 54
2020-03-10 12:00:00 15.3 4 Oeste 10 Oeste 0 -- -- 56
2020-03-10 11:00:00 12.1 2 Sudeste 7 Sur 0 -- -- 63
2020-03-10 10:00:00 8.9 0 Calma 5 Sur 0 -- -- 73
2020-03-10 09:00:00 5.4 4 Sur 11 Sudoeste 0 -- -- 84
2020-03-10 08:00:00 4.2 4 Sur 6 Sudeste 0 -- -- 88
2020-03-10 07:00:00 4.3 3 Sudeste 7 Sur 0 -- -- 87
2020-03-10 06:00:00 4.4 3 Sur 6 Sur 0 -- -- 87
2020-03-10 05:00:00 4.3 2 Sudeste 9 Sudeste 0 -- -- 87
2020-03-10 04:00:00 4.2 4 Sur 9 Sur 0 -- -- 87
2020-03-10 03:00:00 4.1 2 Sur 10 Sur 0 -- -- 88
2020-03-10 02:00:00 4.4 3 Sur 5 Sudeste 0 -- -- 85
2020-03-10 01:00:00 5.1 3 Sudoeste 9 Sudoeste 0 -- -- 84
2020-03-10 00:00:00 5.2 5 Sur 10 Sur 0 -- -- 85
2020-03-09 23:00:00 5.7 6 Sur 10 Sudeste 0 -- -- 84
2020-03-09 22:00:00 7.3 3 Sur 9 Sudeste 0 -- -- 78
2020-03-09 21:00:00 8.7 4 Oeste 7 Oeste 0 -- -- 71
2020-03-09 20:00:00 9.7 3 Sur 12 Norte 0 -- -- 66
2020-03-09 19:00:00 10.9 4 Noroeste 23 Noroeste 0 -- -- 57
2020-03-09 18:00:00 12.2 12 Noroeste 26 Noroeste 0 -- -- 52
2020-03-09 17:00:00 12.3 10 Noroeste 28 Noroeste 0 -- -- 54
2020-03-09 16:00:00 12.3 11 Noroeste 30 Oeste 0 -- -- 52
2020-03-09 15:00:00 12.6 13 Noroeste 32 Noroeste 0 -- -- 53
2020-03-09 14:00:00 12 18 Noroeste 34 Oeste 0 -- -- 54
2020-03-09 13:00:00 11.4 14 Oeste 33 Oeste 0 -- -- 56
2020-03-09 12:00:00 11.5 14 Noroeste 31 Oeste 0 -- -- 54
2020-03-09 11:00:00 10.5 13 Noroeste 36 Oeste 0 -- -- 60
2020-03-09 10:00:00 9.7 9 Oeste 27 Oeste 0 -- -- 66
2020-03-09 09:00:00 8.1 8 Oeste 20 Oeste 0 -- -- 70
2020-03-09 08:00:00 7.6 5 Sudoeste 22 Sudoeste 0 -- -- 72
2020-03-09 07:00:00 7.1 4 Sudoeste 15 Sur 0 -- -- 74
2020-03-09 06:00:00 7.9 7 Sudoeste 14 Sudoeste 0 -- -- 73
2020-03-09 05:00:00 8.3 6 Oeste 25 Oeste 0 -- -- 72
2020-03-09 04:00:00 8.7 12 Oeste 24 Oeste 0 -- -- 73
2020-03-09 03:00:00 9.3 10 Oeste 20 Noroeste 0 -- -- 73
2020-03-09 02:00:00 9.5 8 Sudoeste 16 Oeste 0 -- -- 77
2020-03-09 01:00:00 9.4 7 Oeste 17 Noroeste 0 -- -- 79
2020-03-09 00:00:00 9.8 8 Noroeste 14 Oeste 0 -- -- 80
2020-03-08 23:00:00 10.3 5 Sudoeste 18 Oeste 0 -- -- 80
2020-03-08 22:00:00 11.2 4 Noroeste 17 Oeste 0 -- -- 77
2020-03-08 21:00:00 12.8 4 Sudoeste 13 Sudoeste 0 -- -- 68
2020-03-08 20:00:00 13.9 8 Oeste 17 Noroeste 0 -- -- 61
2020-03-08 19:00:00 13.8 5 Noroeste 27 Norte 0 -- -- 66
2020-03-08 18:00:00 14.4 12 Noroeste 28 Oeste 0 -- -- 62
2020-03-08 17:00:00 15.2 9 Noroeste 28 Norte 0 -- -- 54
2020-03-08 16:00:00 16.2 11 Noroeste 21 Norte 0 -- -- 53
2020-03-08 15:00:00 14.9 9 Noroeste 25 Oeste 0 -- -- 55
2020-03-08 14:00:00 15.5 5 Oeste 12 Sudeste 0 -- -- 58
2020-03-08 13:00:00 14.7 5 Sudeste 12 Sudeste 0 -- -- 62
2020-03-08 12:00:00 11.8 5 Noroeste 18 Noroeste 0 -- -- 70
2020-03-08 11:00:00 9 3 Noroeste 11 Sur 0 -- -- 78
2020-03-08 10:00:00 5.6 2 Este 6 Sudeste 0 -- -- 91
2020-03-08 09:00:00 1.8 3 Sudoeste 9 Sur 0 -- -- 96
2020-03-08 08:00:00 0.6 5 Sur 10 Sudoeste 0 -- -- 95
2020-03-08 07:00:00 0.3 0 Calma 6 Sur 0 -- -- 95
2020-03-08 06:00:00 0.6 4 Sur 9 Sudoeste 0 -- -- 96
2020-03-08 05:00:00 0.6 2 Sur 10 Sudoeste 0 -- -- 95
2020-03-08 04:00:00 1.1 3 Sur 6 Sudeste 0 -- -- 95
2020-03-08 03:00:00 1.6 0 Calma 9 Sudeste 0 -- -- 95
2020-03-08 02:00:00 1.7 3 Sur 6 Sudeste 0 -- -- 94
2020-03-08 01:00:00 2.5 3 Sur 7 Sur 0 -- -- 94
2020-03-08 00:00:00 3 4 Sudeste 5 Sudeste 0 -- -- 92
2020-03-07 23:00:00 4 2 Sur 6 Sur 0 -- -- 91
2020-03-07 22:00:00 5 3 Sur 7 Sur 0 -- -- 89
2020-03-07 21:00:00 6.2 4 Sur 8 Sur 0 -- -- 86
2020-03-07 20:00:00 8.1 3 Sur 6 Sudoeste 0 -- -- 80
2020-03-07 19:00:00 10.3 3 Nordeste 8 Nordeste 0 -- -- 73
2020-03-07 18:00:00 11.2 4 Este 8 Este 0 -- -- 69
2020-03-07 17:00:00 10.5 3 Norte 16 Noroeste 0 -- -- 71
2020-03-07 16:00:00 10.3 11 Noroeste 25 Oeste 0 -- -- 74
2020-03-07 15:00:00 11.2 10 Noroeste 24 Noroeste 0 -- -- 70
2020-03-07 14:00:00 10.6 9 Noroeste 33 Oeste 0 -- -- 79
2020-03-07 13:00:00 10.9 16 Oeste 30 Noroeste 0 -- -- 73
2020-03-07 12:00:00 10.1 8 Noroeste 28 Oeste 0 -- -- 76
2020-03-07 11:00:00 8.9 8 Oeste 23 Oeste 0.2 -- -- 81
2020-03-07 10:00:00 7.9 4 Oeste 26 Oeste 0 -- -- 83
2020-03-07 09:00:00 7.7 13 Oeste 25 Oeste 0 -- -- 79
2020-03-07 08:00:00 6.6 9 Oeste 28 Oeste 0 -- -- 88
2020-03-07 07:00:00 7 7 Oeste 23 Oeste 0 -- -- 81
2020-03-07 06:00:00 6.6 14 Sudoeste 29 Sudoeste 0.2 -- -- 82
2020-03-07 05:00:00 5.9 10 Sudoeste 24 Sudoeste 0 -- -- 85
2020-03-07 04:00:00 5.7 8 Oeste 27 Oeste 0.2 -- -- 82
2020-03-07 03:00:00 5.9 10 Sudoeste 24 Sudoeste 0 -- -- 72
2020-03-07 02:00:00 5.5 6 Sudoeste 24 Oeste 0 -- -- 76
2020-03-07 01:00:00 5.5 15 Oeste 39 Oeste 0 -- -- 80
2020-03-07 00:00:00 5 8 Sudoeste 32 Oeste 0 -- -- 84
2020-03-06 23:00:00 4.8 10 Oeste 22 Oeste 0.4 -- -- 85
2020-03-06 22:00:00 4.5 9 Sudoeste 35 Oeste 0.2 -- -- 86
2020-03-06 21:00:00 4.6 12 Sudoeste 36 Oeste 0 -- -- 82
2020-03-06 20:00:00 5 18 Oeste 37 Oeste 0 -- -- 78
2020-03-06 19:00:00 5 9 Noroeste 32 Oeste 0 -- -- 82
2020-03-06 18:00:00 5.1 11 Oeste 34 Noroeste 0.6 -- -- 84
2020-03-06 17:00:00 6.8 14 Oeste 49 Noroeste 0 -- -- 71
2020-03-06 16:00:00 6.7 22 Noroeste 60 Oeste 0.2 -- -- 73
2020-03-06 15:00:00 7.2 13 Noroeste 43 Oeste 0 -- -- 67
2020-03-06 14:00:00 6 11 Noroeste 49 Noroeste 0 -- -- 77
2020-03-06 13:00:00 6 15 Oeste 34 Oeste 0 -- -- 75
2020-03-06 12:00:00 5.4 17 Oeste 47 Oeste 0 -- -- 81
2020-03-06 11:00:00 4.7 12 Oeste 61 Noroeste 0.4 -- -- 86
2020-03-06 10:00:00 4.6 10 Noroeste 42 Oeste 1.2 -- -- 87
2020-03-06 09:00:00 4.3 18 Noroeste 37 Noroeste 1.4 -- -- 85
2020-03-06 08:00:00 5.1 10 Noroeste 33 Noroeste 0 -- -- 82
2020-03-06 07:00:00 7.5 17 Oeste 38 Oeste 0 -- -- 68
2020-03-06 06:00:00 7.5 14 Oeste 41 Oeste 0 -- -- 69
2020-03-06 05:00:00 7.5 12 Oeste 29 Oeste 0 -- -- 72
2020-03-06 04:00:00 8 14 Oeste 29 Oeste 0 -- -- 64
2020-03-06 03:00:00 5.4 6 Sudoeste 16 Sudoeste 0 -- -- 79
2020-03-06 02:00:00 4.2 4 Sur 9 Sur 0 -- -- 89
2020-03-06 01:00:00 5.6 5 Sur 13 Sur 0 -- -- 84
2020-03-06 00:00:00 6.5 4 Sur 10 Oeste 0 -- -- 80
2020-03-05 23:00:00 7.1 6 Oeste 21 Oeste 0 -- -- 74
2020-03-05 22:00:00 7.6 8 Oeste 18 Oeste 0 -- -- 71
2020-03-05 21:00:00 7.8 11 Oeste 29 Oeste 0 -- -- 69
2020-03-05 20:00:00 8.6 13 Oeste 27 Oeste 0 -- -- 67
2020-03-05 19:00:00 9.7 9 Noroeste 48 Noroeste 0 -- -- 65
2020-03-05 18:00:00 10.7 17 Noroeste 37 Noroeste 0.2 -- -- 62
2020-03-05 17:00:00 10.3 10 Oeste 31 Oeste 0.8 -- -- 76
2020-03-05 16:00:00 11.1 19 Noroeste 63 Oeste 0.4 -- -- 77
2020-03-05 15:00:00 16.3 22 Oeste 70 Noroeste 0 -- -- 46
2020-03-05 14:00:00 15.6 30 Sudoeste 66 Sudoeste 0 -- -- 42
2020-03-05 13:00:00 15.2 27 Sudoeste 68 Sudoeste 0 -- -- 46
2020-03-05 12:00:00 13.5 25 Sudoeste 57 Sudoeste 0.2 -- -- 54
2020-03-05 11:00:00 12 36 Oeste 65 Oeste 0 -- -- 68
2020-03-05 10:00:00 13.2 3 Sudoeste 12 Sur 0 -- -- 73
2020-03-05 09:00:00 12.3 3 Sur 8 Sur 0 -- -- 77
2020-03-05 08:00:00 11.7 3 Nordeste 12 Noroeste 0 -- -- 82
2020-03-05 07:00:00 11.1 3 Nordeste 9 Sudeste 0 -- -- 84
2020-03-05 06:00:00 11.2 0 Calma 6 Nordeste 0 -- -- 82
2020-03-05 05:00:00 11.1 2 Sur 8 Oeste 0 -- -- 83
2020-03-05 04:00:00 10.8 4 Sudoeste 8 Sur 0 -- -- 82
2020-03-05 03:00:00 10.6 2 Norte 7 Oeste 0 -- -- 83
2020-03-05 02:00:00 10.1 4 Sudoeste 9 Sudeste 0 -- -- 84
2020-03-05 01:00:00 10.7 0 Calma 6 Sudeste 0 -- -- 81
2020-03-05 00:00:00 11.5 2 Nordeste 9 Sudoeste 0 -- -- 78
2020-03-04 23:00:00 12.4 4 Sur 9 Sudoeste 0 -- -- 74
2020-03-04 22:00:00 13.5 2 Este 12 Sudoeste 0 -- -- 68
2020-03-04 21:00:00 14.4 4 Sudoeste 14 Sudoeste 0 -- -- 63
2020-03-04 20:00:00 15.5 6 Sudoeste 33 Sudoeste 0 -- -- 60
2020-03-04 19:00:00 16.8 18 Sudoeste 38 Oeste 0 -- -- 53
2020-03-04 18:00:00 17.9 9 Sudoeste 37 Oeste 0 -- -- 54
2020-03-04 17:00:00 18.7 13 Sudoeste 31 Oeste 0 -- -- 50
2020-03-04 16:00:00 20.1 8 Oeste 35 Sudoeste 0 -- -- 48
2020-03-04 15:00:00 19.2 16 Oeste 35 Noroeste 0 -- -- 48
2020-03-04 14:00:00 18.8 19 Oeste 43 Oeste 0 -- -- 49
2020-03-04 13:00:00 18 14 Oeste 36 Oeste 0 -- -- 57
2020-03-04 12:00:00 17.1 17 Oeste 38 Noroeste 0 -- -- 58
2020-03-04 11:00:00 15.8 15 Oeste 43 Oeste 0 -- -- 63
2020-03-04 10:00:00 15 15 Oeste 32 Oeste 0 -- -- 67
2020-03-04 09:00:00 13.5 13 Oeste 28 Oeste 0.2 -- -- 78
2020-03-04 08:00:00 9.4 6 Sudoeste 11 Sudoeste 0 -- -- 91
2020-03-04 07:00:00 9.2 0 Calma 5 Sudeste 0 -- -- 91
2020-03-04 06:00:00 9.1 3 Sur 7 Este 0 -- -- 91
2020-03-04 05:00:00 9 4 Nordeste 6 Nordeste 0.2 -- -- 89
2020-03-04 04:00:00 9 0 Calma 4 Sur 0 -- -- 85
2020-03-04 03:00:00 9.3 0 Calma 5 Noroeste 0 -- -- 81
2020-03-04 02:00:00 9.7 3 Sur 5 Sudeste 0 -- -- 79
2020-03-04 01:00:00 10.3 3 Sudeste 19 Oeste 0 -- -- 75
2020-03-04 00:00:00 10.7 8 Oeste 16 Oeste 0 -- -- 72